Time;durP1;ratioP1;P1;durP2;ratioP2;P2;SDS_P1;SDS_P2;PMS_P1;PMS_P2;Temp;Humidity;BMP_temperature;BMP_pressure;BME280_temperature;BME280_humidity;BME280_pressure;Samples;Min_cycle;Max_cycle;Signal;HPM_P1;HPM_P2
2023/04/11 00:01:42;;;;;;;17.37;14.70;;;;;;;8.73;99.93;94632.84;5072460;28;20890;-80
2023/04/11 00:04:09;;;;;;;19.30;15.07;;;;;;;8.63;100.00;94632.75;5072232;28;20807;-79
2023/04/11 00:06:37;;;;;;;17.87;13.80;;;;;;;8.52;99.98;94621.50;5072080;28;20438;-79
2023/04/11 00:09:04;;;;;;;16.37;12.43;;;;;;;8.51;100.00;94619.84;5072216;28;20515;-79
2023/04/11 00:11:32;;;;;;;17.10;13.20;;;;;;;8.47;100.00;94618.44;5072471;28;20480;-79
2023/04/11 00:14:00;;;;;;;15.30;12.23;;;;;;;8.38;100.00;94606.91;5072162;28;20992;-79
2023/04/11 00:16:27;;;;;;;17.30;13.70;;;;;;;8.27;100.00;94610.38;5036381;28;20478;-79
2023/04/11 00:18:55;;;;;;;19.63;13.17;;;;;;;8.15;100.00;94613.97;5071646;28;20485;-79
2023/04/11 00:21:25;;;;;;;14.17;12.03;;;;;;;8.07;100.00;94601.50;5072514;28;20478;-80
2023/04/11 00:23:54;;;;;;;18.80;13.23;;;;;;;8.13;100.00;94609.81;5071820;28;20932;-78
2023/04/11 00:26:21;;;;;;;17.60;13.73;;;;;;;7.99;100.00;94609.13;5072028;28;20450;-79
2023/04/11 00:28:55;;;;;;;17.33;13.00;;;;;;;7.92;100.00;94607.94;5072792;28;20485;-80
2023/04/11 00:31:21;;;;;;;18.43;13.47;;;;;;;7.94;100.00;94610.44;5074764;28;20452;-79
2023/04/11 00:33:48;;;;;;;15.77;12.10;;;;;;;7.88;100.00;94608.31;5072744;28;20445;-80
2023/04/11 00:36:15;;;;;;;15.70;12.37;;;;;;;7.90;100.00;94611.63;5072737;28;20441;-79
2023/04/11 00:38:50;;;;;;;17.20;13.13;;;;;;;7.90;100.00;94609.84;5072805;28;20489;-79
2023/04/11 00:41:18;;;;;;;18.60;13.53;;;;;;;7.89;100.00;94602.13;5072275;28;20857;-78
2023/04/11 00:43:46;;;;;;;15.37;12.50;;;;;;;7.90;100.00;94607.25;5072246;28;20554;-79
2023/04/11 00:46:16;;;;;;;18.00;12.80;;;;;;;7.87;100.00;94604.88;5037289;28;20444;-79
2023/04/11 00:48:44;;;;;;;18.97;14.10;;;;;;;7.89;100.00;94610.81;5071866;28;20521;-79
2023/04/11 00:51:11;;;;;;;14.53;11.63;;;;;;;7.86;100.00;94600.59;5072388;28;20445;-79
2023/04/11 00:53:44;;;;;;;14.60;12.43;;;;;;;7.89;100.00;94602.97;5073151;28;20524;-79
2023/04/11 00:56:11;;;;;;;13.67;11.80;;;;;;;7.94;100.00;94605.22;5073571;28;20451;-79
2023/04/11 00:58:40;;;;;;;15.77;12.30;;;;;;;7.97;100.00;94607.59;5073766;28;20492;-80
2023/04/11 01:01:08;;;;;;;15.50;12.27;;;;;;;7.99;100.00;94606.50;5074065;28;20450;-80
2023/04/11 01:03:36;;;;;;;18.70;13.13;;;;;;;7.94;100.00;94606.03;5073320;28;20475;-79
2023/04/11 01:06:07;;;;;;;14.17;11.37;;;;;;;7.97;100.00;94603.19;5036936;28;20473;-80
2023/04/11 01:08:34;;;;;;;19.13;12.17;;;;;;;8.02;100.00;94598.44;5072389;28;20529;-80
2023/04/11 01:11:05;;;;;;;17.03;12.13;;;;;;;8.01;100.00;94604.59;5072032;28;20482;-80
2023/04/11 01:13:34;;;;;;;13.70;11.83;;;;;;;8.04;100.00;94600.91;5071490;28;20450;-79
2023/04/11 01:16:03;;;;;;;15.60;12.33;;;;;;;8.02;100.00;94594.97;5052582;28;20849;-80
2023/04/11 01:18:29;;;;;;;15.87;11.73;;;;;;;8.02;100.00;94608.88;5052520;28;20500;-79
2023/04/11 01:20:59;;;;;;;18.70;12.80;;;;;;;8.06;100.00;94604.22;5071734;28;20474;-80
2023/04/11 01:23:29;;;;;;;17.07;13.13;;;;;;;8.11;100.00;94604.72;5037222;28;20473;-79
2023/04/11 01:25:56;;;;;;;15.07;11.33;;;;;;;8.00;100.00;94602.94;5071367;28;20454;-79
2023/04/11 01:28:25;;;;;;;17.37;12.53;;;;;;;8.04;100.00;94604.34;5071659;28;20445;-79
2023/04/11 01:30:52;;;;;;;15.40;12.47;;;;;;;8.06;100.00;94606.84;5080952;28;20446;-79
2023/04/11 01:33:19;;;;;;;22.03;15.73;;;;;;;8.03;100.00;94602.69;5074958;28;20496;-80
2023/04/11 01:35:46;;;;;;;18.10;13.97;;;;;;;8.10;100.00;94597.84;5074953;28;20478;-80
2023/04/11 01:38:13;;;;;;;17.17;12.50;;;;;;;8.11;100.00;94591.66;5075205;28;20480;-78
2023/04/11 01:40:49;;;;;;;18.50;14.00;;;;;;;8.07;100.00;94582.38;5074916;28;20442;-79
2023/04/11 01:43:16;;;;;;;16.70;12.23;;;;;;;8.08;100.00;94589.25;5075337;28;20450;-79
2023/04/11 01:45:43;;;;;;;17.30;13.47;;;;;;;8.01;100.00;94588.94;5078092;28;20449;-78
2023/04/11 01:48:10;;;;;;;13.60;11.57;;;;;;;8.06;100.00;94592.00;5062392;28;20890;-79
2023/04/11 01:50:36;;;;;;;19.23;13.30;;;;;;;8.00;99.97;94584.66;5081096;28;20449;-78
2023/04/11 01:53:07;;;;;;;13.57;10.90;;;;;;;7.91;100.00;94574.13;5075588;28;20453;-79
2023/04/11 01:55:37;;;;;;;15.73;13.27;;;;;;;7.93;100.00;94580.88;5074790;28;20514;-79
2023/04/11 01:58:05;;;;;;;17.37;12.90;;;;;;;7.91;100.00;94580.16;5075039;28;20465;-79
2023/04/11 02:00:32;;;;;;;15.83;11.87;;;;;;;7.88;100.00;94582.19;5075943;28;20449;-78
2023/04/11 02:02:59;;;;;;;16.87;12.97;;;;;;;7.92;100.00;94576.59;5077164;28;20473;-79
2023/04/11 02:05:26;;;;;;;19.10;13.53;;;;;;;7.95;100.00;94581.59;5076465;28;20490;-79
2023/04/11 02:07:55;;;;;;;21.10;13.20;;;;;;;8.01;100.00;94583.69;5088770;28;20503;-78
2023/04/11 02:10:22;;;;;;;18.90;14.43;;;;;;;8.01;100.00;94578.47;5096115;28;20438;-80
2023/04/11 02:12:49;;;;;;;16.87;13.20;;;;;;;7.97;100.00;94582.28;5098215;28;20453;-81
2023/04/11 02:15:17;;;;;;;18.77;13.43;;;;;;;7.96;100.00;94585.03;5098989;28;20499;-81
2023/04/11 02:17:44;;;;;;;17.73;13.43;;;;;;;7.87;100.00;94583.16;5099514;28;20441;-80
2023/04/11 02:20:12;;;;;;;15.40;12.40;;;;;;;7.86;100.00;94578.88;5099128;28;20454;-81
2023/04/11 02:22:39;;;;;;;17.90;14.07;;;;;;;7.78;100.00;94595.13;5099220;28;20512;-81
2023/04/11 02:25:07;;;;;;;20.20;14.30;;;;;;;7.71;100.00;94583.50;5099217;28;20433;-81
2023/04/11 02:27:34;;;;;;;19.27;14.73;;;;;;;7.78;100.00;94592.53;5079077;28;20438;-79
2023/04/11 02:30:04;;;;;;;18.70;13.43;;;;;;;7.81;100.00;94588.88;5094411;28;20434;-80
2023/04/11 02:32:33;;;;;;;23.37;14.73;;;;;;;7.76;100.00;94584.81;5098840;28;20468;-80
2023/04/11 02:34:59;;;;;;;18.07;14.00;;;;;;;7.75;100.00;94587.53;5064721;28;20429;-82
2023/04/11 02:37:26;;;;;;;20.60;14.27;;;;;;;7.69;100.00;94591.47;5098936;28;20461;-80
2023/04/11 02:39:54;;;;;;;18.70;14.43;;;;;;;7.69;100.00;94590.63;5096847;28;20488;-80
2023/04/11 02:42:21;;;;;;;22.37;15.13;;;;;;;7.74;100.00;94591.09;5096599;28;20445;-80
2023/04/11 02:44:48;;;;;;;18.30;13.80;;;;;;;7.78;100.00;94595.13;5098768;28;20426;-80
2023/04/11 02:47:14;;;;;;;18.50;14.73;;;;;;;7.85;100.00;94592.91;5098637;28;20763;-80
2023/04/11 02:49:43;;;;;;;19.10;14.00;;;;;;;7.85;100.00;94592.91;5098620;28;20432;-80
2023/04/11 02:52:12;;;;;;;18.60;14.27;;;;;;;7.74;100.00;94578.88;5098615;28;20432;-81
2023/04/11 02:54:43;;;;;;;18.43;15.07;;;;;;;7.77;99.68;94585.63;5080761;28;20531;-81
2023/04/11 02:57:10;;;;;;;20.43;15.50;;;;;;;7.72;100.00;94574.72;5098653;28;20430;-79
2023/04/11 02:59:37;;;;;;;22.00;16.67;;;;;;;7.71;99.95;94575.69;5098729;28;20473;-80
2023/04/11 03:02:03;;;;;;;21.63;17.00;;;;;;;7.67;99.76;94564.66;5098486;28;20440;-79
2023/04/11 03:04:31;;;;;;;22.23;15.10;;;;;;;7.62;100.00;94558.13;5097740;28;20440;-81
2023/04/11 03:07:00;;;;;;;20.10;16.43;;;;;;;7.65;100.00;94568.34;5097720;28;20459;-82
2023/04/11 03:09:28;;;;;;;27.87;17.07;;;;;;;7.66;100.00;94565.59;5097267;28;20426;-79
2023/04/11 03:11:55;;;;;;;21.40;14.90;;;;;;;7.64;100.00;94570.13;5062164;28;20418;-81
2023/04/11 03:14:22;;;;;;;22.87;16.57;;;;;;;7.58;100.00;94549.72;5096738;28;20449;-79
2023/04/11 03:16:49;;;;;;;21.90;15.17;;;;;;;7.63;99.69;94567.63;5093947;28;20473;-80
2023/04/11 03:19:16;;;;;;;21.17;14.93;;;;;;;7.64;99.80;94564.06;5089617;28;20484;-80
2023/04/11 03:21:42;;;;;;;24.33;16.57;;;;;;;7.64;100.00;94569.28;5092450;28;20458;-79
2023/04/11 03:24:12;;;;;;;24.10;17.80;;;;;;;7.66;99.55;94564.78;5089498;28;20452;-79
2023/04/11 03:26:39;;;;;;;24.23;16.40;;;;;;;7.65;99.51;94563.13;5076184;28;20480;-79
2023/04/11 03:29:08;;;;;;;23.03;16.47;;;;;;;7.60;99.44;94571.31;5072858;28;20856;-79
2023/04/11 03:31:35;;;;;;;23.67;15.87;;;;;;;7.62;99.20;94564.19;5073460;28;20448;-79
2023/04/11 03:34:02;;;;;;;21.90;16.20;;;;;;;7.59;99.15;94559.19;5072769;28;20441;-79
2023/04/11 03:36:28;;;;;;;23.03;17.70;;;;;;;7.62;99.10;94571.19;5072308;28;20840;-79
2023/04/11 03:38:55;;;;;;;28.90;19.20;;;;;;;7.66;98.70;94568.22;5038140;28;20499;-79
2023/04/11 03:41:23;;;;;;;26.23;18.50;;;;;;;7.61;98.65;94564.31;5084963;28;20449;-79
2023/04/11 03:43:50;;;;;;;30.50;19.27;;;;;;;7.61;98.41;94564.31;5083575;28;20446;-79
2023/04/11 03:46:17;;;;;;;28.70;21.40;;;;;;;7.60;98.49;94565.25;5054406;28;20971;-79
2023/04/11 03:48:45;;;;;;;28.03;18.27;;;;;;;7.57;98.34;94562.88;5072958;28;20437;-79
2023/04/11 03:51:12;;;;;;;27.60;18.33;;;;;;;7.58;98.49;94561.94;5073013;28;20448;-79
2023/04/11 03:53:39;;;;;;;25.80;18.50;;;;;;;7.54;98.43;94563.13;5072694;28;20428;-79
2023/04/11 03:56:07;;;;;;;24.67;17.03;;;;;;;7.59;98.19;94566.22;5054044;28;20480;-78
2023/04/11 03:58:35;;;;;;;23.50;16.53;;;;;;;7.56;98.68;94561.22;5004696;28;20447;-78
2023/04/11 04:01:02;;;;;;;21.73;16.60;;;;;;;7.56;98.54;94566.44;5072079;28;20536;-79
2023/04/11 04:03:32;;;;;;;23.57;16.33;;;;;;;7.61;97.83;94569.53;5072189;28;20961;-79
2023/04/11 04:05:59;;;;;;;25.67;17.27;;;;;;;7.66;98.46;94572.59;5072695;28;20448;-79
2023/04/11 04:08:25;;;;;;;22.20;16.33;;;;;;;7.66;97.81;94567.38;5072400;28;20460;-79
2023/04/11 04:10:52;;;;;;;21.50;17.67;;;;;;;7.65;97.18;94568.34;5075441;28;20448;-79
2023/04/11 04:13:19;;;;;;;26.47;16.73;;;;;;;7.61;96.92;94572.97;5086978;28;20448;-80
2023/04/11 04:15:47;;;;;;;24.23;17.07;;;;;;;7.67;96.82;94569.88;5072572;28;20473;-79
2023/04/11 04:18:14;;;;;;;25.77;16.97;;;;;;;7.66;96.80;94559.53;5073192;28;20861;-80
2023/04/11 04:20:41;;;;;;;28.97;17.90;;;;;;;7.54;96.38;94563.97;5071604;28;20492;-80
2023/04/11 04:23:12;;;;;;;24.87;17.80;;;;;;;7.58;96.47;94570.59;5072386;28;20450;-79
2023/04/11 04:25:40;;;;;;;27.57;18.10;;;;;;;7.60;96.73;94557.41;5072019;28;20508;-79
2023/04/11 04:28:08;;;;;;;27.97;19.43;;;;;;;7.58;96.83;94567.16;5072105;28;20434;-79
2023/04/11 04:30:36;;;;;;;25.37;18.07;;;;;;;7.52;96.89;94562.41;5072343;28;20440;-79
2023/04/11 04:33:05;;;;;;;28.40;17.57;;;;;;;7.52;97.18;94565.00;5053175;28;20453;-79
2023/04/11 04:35:31;;;;;;;30.30;18.03;;;;;;;7.54;97.62;94568.34;5070199;28;20872;-79
2023/04/11 04:38:04;;;;;;;28.67;19.03;;;;;;;7.55;97.05;94568.22;5069068;28;20507;-79
2023/04/11 04:40:31;;;;;;;25.57;19.20;;;;;;;7.54;97.82;94563.13;5062352;28;20998;-79
2023/04/11 04:42:58;;;;;;;25.50;19.00;;;;;;;7.51;97.65;94552.91;5071286;28;20438;-79
2023/04/11 04:45:25;;;;;;;24.23;18.23;;;;;;;7.55;97.62;94556.97;5071885;28;20452;-79
2023/04/11 04:47:52;;;;;;;26.33;18.10;;;;;;;7.56;96.94;94556.84;5071902;28;21123;-79
2023/04/11 04:50:20;;;;;;;32.30;19.10;;;;;;;7.55;97.17;94547.34;5071914;28;20990;-79
2023/04/11 04:52:47;;;;;;;30.57;20.90;;;;;;;7.51;97.18;94547.69;5052569;28;20474;-79
2023/04/11 04:55:14;;;;;;;30.00;19.13;;;;;;;7.45;97.35;94549.81;5071632;28;20454;-79
2023/04/11 04:57:42;;;;;;;25.37;17.77;;;;;;;7.37;97.69;94547.00;5071732;28;20460;-79
2023/04/11 05:00:12;;;;;;;24.87;16.57;;;;;;;7.38;97.29;94543.44;5071496;28;20481;-79
2023/04/11 05:02:39;;;;;;;30.90;20.50;;;;;;;7.35;97.58;94543.66;5071739;28;20455;-80
2023/04/11 05:05:07;;;;;;;31.87;20.80;;;;;;;7.32;97.87;94553.53;5053323;28;20437;-79
2023/04/11 05:07:36;;;;;;;36.10;22.80;;;;;;;7.40;98.33;94551.97;5075640;28;20520;-79
2023/04/11 05:10:03;;;;;;;27.10;17.33;;;;;;;7.33;97.59;94549.97;5075697;28;20909;-79
2023/04/11 05:12:29;;;;;;;33.40;20.37;;;;;;;7.31;97.46;94557.91;5075256;28;20469;-79
2023/04/11 05:14:56;;;;;;;28.63;19.90;;;;;;;7.32;97.67;94559.56;5075407;28;20452;-79
2023/04/11 05:17:23;;;;;;;26.83;18.37;;;;;;;7.37;97.80;94561.81;5075341;28;20447;-79
2023/04/11 05:19:50;;;;;;;28.30;18.13;;;;;;;7.41;97.41;94552.78;5075238;28;20476;-79
2023/04/11 05:22:17;;;;;;;24.30;18.83;;;;;;;7.38;96.83;94548.66;5075221;28;20450;-79
2023/04/11 05:24:45;;;;;;;37.60;21.37;;;;;;;7.41;96.69;94552.78;5075049;28;20499;-79
2023/04/11 05:27:12;;;;;;;30.20;19.60;;;;;;;7.45;97.26;94554.22;5074942;28;20438;-79
2023/04/11 05:29:39;;;;;;;28.10;18.00;;;;;;;7.38;95.98;94553.88;5074931;28;20448;-79
2023/04/11 05:32:06;;;;;;;27.30;17.47;;;;;;;7.38;96.13;94548.66;5074892;28;20441;-80
2023/04/11 05:34:33;;;;;;;28.50;19.23;;;;;;;7.40;96.54;94546.75;5074944;28;20447;-80
2023/04/11 05:37:00;;;;;;;29.00;17.37;;;;;;;7.43;96.20;94551.72;5039430;28;20499;-80
2023/04/11 05:39:26;;;;;;;30.20;19.23;;;;;;;7.39;95.86;94534.66;5074639;28;20480;-79
2023/04/11 05:41:55;;;;;;;24.50;18.20;;;;;;;7.49;95.74;94545.19;5074770;28;20445;-79
2023/04/11 05:44:22;;;;;;;32.27;18.90;;;;;;;7.45;95.30;94539.38;5074987;28;20464;-79
2023/04/11 05:46:49;;;;;;;32.87;21.20;;;;;;;7.50;95.62;94535.56;5074975;28;20864;-79
2023/04/11 05:49:15;;;;;;;26.03;18.83;;;;;;;7.62;95.08;94542.47;5074814;28;20868;-79
2023/04/11 05:51:42;;;;;;;26.67;19.47;;;;;;;7.64;95.07;94537.94;5074915;28;20512;-79
2023/04/11 05:54:09;;;;;;;32.47;19.43;;;;;;;7.69;94.97;94533.19;5074502;28;20454;-80
2023/04/11 05:56:38;;;;;;;25.57;16.93;;;;;;;7.71;94.62;94541.72;5074805;28;20477;-80
2023/04/11 05:59:06;;;;;;;24.13;17.23;;;;;;;7.74;94.67;94534.47;5074605;28;20532;-79
2023/04/11 06:01:33;;;;;;;27.93;17.93;;;;;;;7.80;94.53;94527.94;5074387;28;20437;-80
2023/04/11 06:04:00;;;;;;;33.43;19.77;;;;;;;7.93;94.77;94533.03;5073130;28;20457;-80
2023/04/11 06:06:28;;;;;;;22.33;17.40;;;;;;;7.87;93.61;94523.06;5074202;28;20436;-80
2023/04/11 06:08:54;;;;;;;21.87;17.27;;;;;;;7.95;93.39;94521.50;5074473;28;20442;-79
2023/04/11 06:11:22;;;;;;;22.53;15.80;;;;;;;7.98;93.17;94520.41;5039133;28;20457;-79
2023/04/11 06:13:48;;;;;;;24.23;17.23;;;;;;;8.00;92.63;94519.34;5074573;28;20477;-79
2023/04/11 06:16:17;;;;;;;20.93;15.47;;;;;;;8.00;92.77;94519.34;5038462;28;20515;-79
2023/04/11 06:18:43;;;;;;;22.97;16.60;;;;;;;8.11;92.42;94525.50;5074410;28;20940;-80
2023/04/11 06:21:10;;;;;;;26.00;17.00;;;;;;;8.20;92.21;94515.13;5074204;28;20968;-79
2023/04/11 06:23:37;;;;;;;43.37;28.20;;;;;;;8.37;92.36;94516.38;5074272;28;20450;-78
2023/04/11 06:26:04;;;;;;;32.30;15.63;;;;;;;8.44;90.76;94514.09;5074349;28;20439;-79
2023/04/11 06:28:30;;;;;;;26.73;17.70;;;;;;;8.66;90.25;94520.00;5073890;28;20438;-79
2023/04/11 06:30:57;;;;;;;26.90;19.90;;;;;;;8.88;89.19;94516.44;5073898;28;20450;-79
2023/04/11 06:33:25;;;;;;;38.27;21.07;;;;;;;8.97;88.58;94514.84;5073767;28;20453;-81
2023/04/11 06:35:52;;;;;;;26.60;18.57;;;;;;;9.04;88.56;94516.00;5038447;28;20443;-79
2023/04/11 06:38:19;;;;;;;20.93;16.73;;;;;;;9.14;87.08;94511.63;5055066;28;20568;-80
2023/04/11 06:40:47;;;;;;;23.37;17.27;;;;;;;9.36;86.44;94518.47;5073926;28;20893;-80
2023/04/11 06:43:14;;;;;;;22.33;16.27;;;;;;;9.49;86.47;94505.13;5073640;28;20832;-80
2023/04/11 06:45:41;;;;;;;21.33;14.57;;;;;;;9.47;84.85;94507.06;5073812;28;20447;-80
2023/04/11 06:48:10;;;;;;;20.23;16.53;;;;;;;9.40;85.25;94500.72;5074343;28;20459;-79
2023/04/11 06:50:39;;;;;;;24.03;15.73;;;;;;;9.46;85.71;94494.94;5075288;28;20496;-79
2023/04/11 06:53:06;;;;;;;22.90;16.07;;;;;;;9.64;84.18;94501.19;5074041;28;20447;-79
2023/04/11 06:55:33;;;;;;;19.90;12.03;;;;;;;9.59;82.24;94506.03;5073643;28;20455;-80
2023/04/11 06:58:01;;;;;;;23.33;17.50;;;;;;;9.62;84.22;94505.75;5073431;28;20818;-79
2023/04/11 07:00:28;;;;;;;21.13;16.53;;;;;;;9.74;84.30;94511.69;5073458;28;20487;-79
2023/04/11 07:02:55;;;;;;;20.57;15.60;;;;;;;9.74;83.21;94515.16;5073408;28;20451;-80
2023/04/11 07:05:22;;;;;;;25.93;14.77;;;;;;;9.63;82.81;94507.41;5073698;28;20610;-81
2023/04/11 07:07:50;;;;;;;18.07;15.70;;;;;;;9.72;83.96;94517.06;5073193;28;20453;-79
2023/04/11 07:10:17;;;;;;;17.30;13.97;;;;;;;9.68;82.29;94520.09;5073568;28;20448;-80
2023/04/11 07:12:43;;;;;;;21.53;15.03;;;;;;;9.52;82.59;94521.41;5073150;28;20458;-79
2023/04/11 07:15:11;;;;;;;16.00;13.07;;;;;;;9.32;82.70;94517.09;5073166;28;20478;-79
2023/04/11 07:17:37;;;;;;;18.93;15.23;;;;;;;9.26;84.26;94515.84;5038169;28;20447;-80
2023/04/11 07:20:07;;;;;;;17.80;13.50;;;;;;;9.15;84.13;94515.91;5073390;28;20491;-79
2023/04/11 07:22:35;;;;;;;13.87;11.30;;;;;;;9.19;84.38;94509.44;5038554;28;20448;-80
2023/04/11 07:25:04;;;;;;;18.00;14.13;;;;;;;9.14;83.97;94500.31;5054189;28;20435;-81
2023/04/11 07:27:31;;;;;;;17.97;13.60;;;;;;;9.21;83.59;94501.44;5072862;28;20538;-80
2023/04/11 07:29:57;;;;;;;18.70;12.20;;;;;;;9.32;84.05;94499.59;5037543;28;20499;-80
2023/04/11 07:32:24;;;;;;;17.70;12.63;;;;;;;9.42;83.85;94502.22;5072623;28;20531;-81
2023/04/11 07:34:51;;;;;;;17.60;13.00;;;;;;;9.47;83.84;94505.28;5072833;28;20852;-80
2023/04/11 07:37:18;;;;;;;19.67;11.63;;;;;;;9.60;83.38;94502.44;5072973;28;20450;-80
2023/04/11 07:39:45;;;;;;;21.07;13.57;;;;;;;9.58;82.42;94492.09;5072816;28;20964;-80
2023/04/11 07:42:13;;;;;;;17.27;12.23;;;;;;;9.62;83.01;94495.28;5073390;28;20445;-80
2023/04/11 07:44:40;;;;;;;16.63;12.50;;;;;;;9.65;81.49;94494.16;5072539;28;20497;-80
2023/04/11 07:47:06;;;;;;;17.00;13.20;;;;;;;9.69;82.68;94491.16;5072938;28;20448;-80
2023/04/11 07:49:33;;;;;;;20.10;13.97;;;;;;;9.75;82.32;94493.22;5072493;28;20452;-79
2023/04/11 07:52:00;;;;;;;18.30;13.57;;;;;;;9.86;82.89;94492.28;5072789;28;20459;-80
2023/04/11 07:54:27;;;;;;;13.30;11.30;;;;;;;9.82;80.74;94489.09;5072441;28;20524;-80
2023/04/11 07:56:55;;;;;;;20.10;13.47;;;;;;;9.86;81.76;94477.41;5072591;28;20466;-80
2023/04/11 07:59:23;;;;;;;15.40;11.70;;;;;;;9.92;80.82;94479.47;5072332;28;20425;-79
2023/04/11 08:01:58;;;;;;;13.43;11.80;;;;;;;10.00;81.12;94489.25;5054294;28;20575;-80
2023/04/11 08:04:25;;;;;;;16.47;10.90;;;;;;;10.03;79.61;94480.28;5072382;28;20530;-80
2023/04/11 08:06:52;;;;;;;14.63;11.50;;;;;;;10.04;79.98;94476.72;5072084;28;20924;-80
2023/04/11 08:09:19;;;;;;;16.90;12.87;;;;;;;10.12;79.96;94476.84;5072262;28;20978;-79
2023/04/11 08:11:46;;;;;;;22.77;14.60;;;;;;;10.21;79.89;94469.03;5072458;28;20441;-80
2023/04/11 08:14:13;;;;;;;16.50;12.37;;;;;;;10.27;78.92;94475.50;5072332;28;20447;-80
2023/04/11 08:16:41;;;;;;;14.80;11.73;;;;;;;10.49;79.44;94461.28;5072059;28;20476;-79
2023/04/11 08:19:09;;;;;;;15.83;12.13;;;;;;;10.52;78.41;94467.06;5072075;28;20452;-79
2023/04/11 08:21:36;;;;;;;15.33;11.40;;;;;;;10.64;77.50;94462.50;5072744;28;20485;-80
2023/04/11 08:24:02;;;;;;;13.47;11.83;;;;;;;10.79;76.37;94460.25;5071903;28;20445;-80
2023/04/11 08:26:29;;;;;;;14.57;11.60;;;;;;;10.91;76.35;94467.00;5072300;28;20436;-80
2023/04/11 08:28:56;;;;;;;19.87;13.10;;;;;;;10.99;75.68;94461.03;5036575;28;20444;-79
2023/04/11 08:31:23;;;;;;;16.57;12.67;;;;;;;11.01;73.42;94448.59;5072461;28;20444;-80
2023/04/11 08:33:51;;;;;;;35.53;22.70;;;;;;;11.03;74.98;94446.66;5071624;28;20955;-80
2023/04/11 08:36:18;;;;;;;19.20;13.60;;;;;;;11.12;75.42;94457.13;5071829;28;20433;-79
2023/04/11 08:38:44;;;;;;;13.20;10.10;;;;;;;11.02;73.66;94451.09;5072069;28;20517;-80
2023/04/11 08:41:13;;;;;;;15.07;13.10;;;;;;;11.00;73.68;94442.53;5076147;28;20498;-80
2023/04/11 08:43:40;;;;;;;16.03;12.27;;;;;;;11.01;74.08;94444.19;5040931;28;20473;-80
2023/04/11 08:46:10;;;;;;;13.80;11.30;;;;;;;11.05;74.80;94442.09;5075851;28;20440;-80
2023/04/11 08:48:38;;;;;;;14.90;10.10;;;;;;;11.05;72.71;94440.28;5075764;28;20440;-79
2023/04/11 08:51:07;;;;;;;12.73;11.43;;;;;;;11.08;72.78;94450.50;5075794;28;20445;-80
2023/04/11 08:53:36;;;;;;;16.40;11.07;;;;;;;11.10;72.25;94443.31;5076063;28;20498;-79
2023/04/11 08:56:03;;;;;;;13.40;11.03;;;;;;;11.12;71.78;94444.00;5075597;28;20521;-79
2023/04/11 08:58:31;;;;;;;14.93;10.80;;;;;;;11.23;71.15;94442.97;5075770;28;20448;-80
2023/04/11 09:01:21;;;;;;;17.57;11.10;;;;;;;11.32;72.06;94434.22;5076052;28;20812;-79
2023/04/11 09:03:51;;;;;;;12.73;10.20;;;;;;;11.23;70.60;94437.72;5075534;28;20933;-80
2023/04/11 09:06:19;;;;;;;12.27;9.90;;;;;;;11.21;70.80;94434.41;5075809;28;20528;-79
2023/04/11 09:08:46;;;;;;;17.07;12.13;;;;;;;11.36;71.26;94426.88;5075578;28;20451;-80
2023/04/11 09:11:13;;;;;;;18.10;12.90;;;;;;;11.60;70.94;94429.78;5075472;28;20437;-80
2023/04/11 09:13:40;;;;;;;13.30;10.90;;;;;;;11.83;71.71;94416.25;5075340;28;20494;-80
2023/04/11 09:16:09;;;;;;;15.60;12.13;;;;;;;12.03;71.30;94410.69;5075370;28;20472;-80
2023/04/11 09:18:37;;;;;;;16.20;11.10;;;;;;;12.30;69.42;94416.84;5075306;28;20803;-79
2023/04/11 09:21:05;;;;;;;13.80;11.10;;;;;;;12.49;67.11;94413.22;5075099;28;20839;-80
2023/04/11 09:23:34;;;;;;;14.20;11.50;;;;;;;12.58;67.17;94404.41;5075438;28;20449;-79
2023/04/11 09:26:01;;;;;;;14.20;11.30;;;;;;;12.54;66.40;94395.16;5075486;28;20502;-80
2023/04/11 09:28:35;;;;;;;12.10;10.90;;;;;;;12.43;66.52;94400.66;5075467;28;20445;-80
2023/04/11 09:31:02;;;;;;;12.50;10.50;;;;;;;12.32;66.56;94393.84;5075332;28;20437;-80
2023/04/11 09:33:30;;;;;;;15.20;10.70;;;;;;;11.98;65.82;94404.25;5075042;28;20812;-80
2023/04/11 09:35:57;;;;;;;14.50;9.83;;;;;;;11.85;67.18;94395.88;5074882;28;20448;-79
2023/04/11 09:38:32;;;;;;;14.80;9.77;;;;;;;11.88;68.10;94393.81;5075083;28;20499;-80
2023/04/11 09:41:01;;;;;;;18.90;11.77;;;;;;;11.95;67.96;94383.50;5074861;28;20885;-80
2023/04/11 09:43:48;;;;;;;16.07;11.90;;;;;;;12.18;68.46;94386.50;5074876;28;20860;-79
2023/04/11 09:46:17;;;;;;;14.73;11.57;;;;;;;12.47;66.83;94365.19;5074771;28;20869;-79
2023/04/11 09:48:44;;;;;;;22.60;14.43;;;;;;;12.54;65.08;94376.75;5040327;28;20494;-80
2023/04/11 09:51:11;;;;;;;12.47;10.97;;;;;;;12.51;63.68;94369.16;5074061;28;20481;-80
2023/04/11 09:53:38;;;;;;;17.57;11.63;;;;;;;12.43;64.91;94358.56;5074783;28;20435;-79
2023/04/11 09:56:12;;;;;;;15.23;12.20;;;;;;;12.35;65.55;94354.06;5074843;28;20786;-79
2023/04/11 09:58:40;;;;;;;19.93;11.47;;;;;;;12.31;65.66;94356.19;5074819;28;20445;-79
2023/04/11 10:01:09;;;;;;;12.80;10.50;;;;;;;12.28;65.23;94359.13;5055477;28;20530;-80
2023/04/11 10:03:37;;;;;;;19.67;15.00;;;;;;;12.30;66.38;94358.97;5074381;28;20646;-79
2023/04/11 10:06:07;;;;;;;18.37;12.93;;;;;;;12.30;66.75;94349.28;5074404;28;20502;-79
2023/04/11 10:08:36;;;;;;;16.33;12.40;;;;;;;12.29;65.62;94352.88;5074085;28;20445;-80
2023/04/11 10:11:06;;;;;;;13.97;11.60;;;;;;;12.40;65.93;94342.09;5074393;28;20441;-80
2023/04/11 10:13:42;;;;;;;15.43;10.93;;;;;;;12.40;64.15;94347.34;5074410;28;20465;-80
2023/04/11 10:16:11;;;;;;;15.53;11.10;;;;;;;12.45;64.67;94346.91;5073899;28;20480;-79
2023/04/11 10:18:39;;;;;;;17.33;12.23;;;;;;;12.50;64.67;94346.44;5074186;28;20488;-80
2023/04/11 10:21:39;;;;;;;13.93;11.63;;;;;;;12.63;64.53;94338.94;5074536;28;20476;-80
2023/04/11 10:24:10;;;;;;;17.97;12.77;;;;;;;12.71;64.43;94331.91;5074093;28;20885;-79
2023/04/11 10:26:47;;;;;;;22.30;11.90;;;;;;;12.85;64.75;94327.88;5073965;28;20510;-80
2023/04/11 10:29:52;;;;;;;14.53;11.20;;;;;;;13.16;62.56;94322.06;5055011;28;20447;-80
2023/04/11 10:32:23;;;;;;;18.10;13.20;;;;;;;13.22;62.65;94308.28;5054910;28;20460;-80
2023/04/11 10:35:22;;;;;;;13.10;11.07;;;;;;;13.33;60.70;94311.47;5073787;28;20518;-79
2023/04/11 10:37:49;;;;;;;13.00;11.60;;;;;;;13.40;59.76;94305.53;5011541;28;20985;-80
2023/04/11 10:40:19;;;;;;;13.27;10.63;;;;;;;13.37;59.80;94296.16;5011511;28;20963;-80
2023/04/11 10:42:46;;;;;;;12.90;11.17;;;;;;;13.28;60.31;94291.84;5011434;28;20508;-80
2023/04/11 10:45:23;;;;;;;11.53;10.17;;;;;;;13.26;59.93;94278.00;5011395;28;20849;-79
2023/04/11 10:48:06;;;;;;;12.27;10.13;;;;;;;13.40;58.99;94285.28;5011455;28;20532;-80
2023/04/11 10:50:35;;;;;;;14.73;10.70;;;;;;;13.64;59.56;94282.69;5011223;28;20463;-81
2023/04/11 10:53:05;;;;;;;12.33;10.60;;;;;;;13.90;58.67;94281.72;5011694;28;20442;-81
2023/04/11 10:55:43;;;;;;;9.80;8.90;;;;;;;13.89;55.69;94280.06;5011068;28;20456;-81
2023/04/11 10:58:12;;;;;;;11.97;9.70;;;;;;;13.74;56.47;94282.53;5011307;28;20526;-79
2023/04/11 11:01:13;;;;;;;13.17;11.13;;;;;;;13.60;57.99;94273.47;5011281;28;20480;-80
2023/04/11 11:03:52;;;;;;;16.87;9.77;;;;;;;13.69;56.52;94269.00;4951991;28;20986;-80
2023/04/11 11:06:18;;;;;;;11.30;9.30;;;;;;;13.67;56.53;94267.53;4921286;29;20543;-80
2023/04/11 11:08:45;;;;;;;14.60;10.33;;;;;;;13.75;55.81;94259.63;4952661;28;20511;-79
2023/04/11 11:11:14;;;;;;;12.27;10.30;;;;;;;13.80;55.62;94252.84;4934316;28;20547;-81
2023/04/11 11:13:42;;;;;;;14.80;10.30;;;;;;;13.93;54.53;94253.19;5029092;28;21076;-80
2023/04/11 11:16:13;;;;;;;10.00;9.00;;;;;;;14.07;54.77;94250.84;5030081;28;20474;-80
2023/04/11 11:18:45;;;;;;;13.20;9.67;;;;;;;14.13;55.25;94248.38;5029990;28;20517;-78
2023/04/11 11:21:12;;;;;;;10.17;8.33;;;;;;;14.16;54.74;94245.41;5030088;28;20527;-80
2023/04/11 11:23:39;;;;;;;9.47;7.57;;;;;;;14.15;53.99;94242.91;5030642;28;20450;-81
2023/04/11 11:26:06;;;;;;;10.50;9.13;;;;;;;13.98;52.97;94221.03;5029701;28;20544;-79
2023/04/11 11:28:53;;;;;;;9.17;8.27;;;;;;;13.97;51.89;94237.84;4990796;28;20468;-80